METAR AND TAF INFORMATION
METAR FOR LFMD
ADDS - METARS form results

(0452 UTC 03 February 2023)
Data provider http://aviationweather.gov/metar/data/
 
METAR text: LFMD 030430Z AUTO 01005KT 330V060 CAVOK 03/M00 Q1026 NOSIG
Conditions at: LFMD (CANNES/MANDELIEU, FR) observed 0430 UTC 03 February 2023
Temperature: 3.0°C (37°F)
Dewpoint: 0.0°C (32°F) [RH = 81%]
Pressure (altimeter): 30.30 inches Hg (1026.0 mb)
Winds: from the N (10 degrees) at 6 MPH (5 knots; 2.6 m/s)
Visibility: 6 or more miles (10+ km)
Ceiling: ceiling and visibility are OK
Clouds: unknown
Weather: no significant weather observed at this time

METAR text: LFMD 030400Z AUTO 01003KT 330V050 CAVOK 03/M00 Q1026 NOSIG
Conditions at: LFMD (CANNES/MANDELIEU, FR) observed 0400 UTC 03 February 2023
Temperature: 3.0°C (37°F)
Dewpoint: 0.0°C (32°F) [RH = 81%]
Pressure (altimeter): 30.30 inches Hg (1026.0 mb)
Winds: from the N (10 degrees) at 3 MPH (3 knots; 1.5 m/s)
Visibility: 6 or more miles (10+ km)
Ceiling: ceiling and visibility are OK
Clouds: unknown
Weather: no significant weather observed at this time

Forecast for: LFMD (CANNES/MANDELIEU, FR)
Text: TAF LFMD 030200Z 0303/0403 01005KT CAVOK
Forecast period: 0300 UTC 03 February 2023 to 0300 UTC 04 February 2023
Forecast type: FROM: standard forecast or significant change
Winds: from the N (10 degrees) at 6 MPH (5 knots; 2.6 m/s)
Visibility: 6 or more miles (10+ km)
Ceiling: unknown
Clouds: missing
Weather: NSW  (no significant weather)
Text: TEMPO 0314/0317 18010KT
Forecast period: 1400 to 1700 UTC 03 February 2023
Forecast type: TEMPORARY: The following changes expected for less than half the time period
Winds: from the S (180 degrees) at 12 MPH (10 knots; 5.1 m/s)
Visibility: missing
Ceiling: unknown
Clouds: missing
Weather: no significant weather forecast for this period
Text: TEMPO 0400/0403 BKN008
Forecast period: 0000 to 0300 UTC 04 February 2023
Forecast type: TEMPORARY: The following changes expected for less than half the time period
Visibility: missing
Ceiling: 800 feet AGL
Clouds: broken clouds at 800 feet AGL
Weather: no significant weather forecast for this period

 AIRPORT MAP

 RUNWAY INFORMATION
Runway 05 Runway length 2493 ft Runway width 98 ft
Runway elevation 7 ft Runway displaced threshold 328 ft Runway heading 47
Runway 23 Runway length 2493 ft Runway width 98 ft
Runway elevation 10 ft Runway displaced threshold 98 ft Runway heading 227
Runway 17 Runway length 5282 ft Runway width 148 ft
Runway elevation 13 ft Runway displaced threshold 393 ft Runway heading 173
Runway 35 Runway length 5282 ft Runway width 148 ft
Runway elevation 13 ft Runway displaced threshold 1148 ft Runway heading 353

 AIRPORT FREQUENCIES
Type ATIS Name CANNES ATI Frequency 127.475 MHZ
Type GND Name CANNES GND Frequency 121.8 MHZ
Type TWR Name CANNES TWR Frequency 118.625 MHZ

 AIRPORT NEAR NAVIGATION AIDS
Type VOR Name Cannes Frequency 111400 KHZ



Powered by Virtual Airlines Manager [v2.6.2]